sensor_id;sensor_type;location;lat;lon;timestamp;P1;durP1;ratioP1;P2;durP2;ratioP2
77430;SDS011;66498;48.564;19.272;2023-04-30T00:00:53;26.13;;;20.17;;
77430;SDS011;66498;48.564;19.272;2023-04-30T00:03:19;29.77;;;21.23;;
77430;SDS011;66498;48.564;19.272;2023-04-30T00:05:44;29.10;;;20.55;;
77430;SDS011;66498;48.564;19.272;2023-04-30T00:08:13;32.92;;;21.15;;
77430;SDS011;66498;48.564;19.272;2023-04-30T00:10:39;26.23;;;20.38;;
77430;SDS011;66498;48.564;19.272;2023-04-30T00:13:06;27.65;;;20.77;;
77430;SDS011;66498;48.564;19.272;2023-04-30T00:15:32;25.63;;;18.48;;
77430;SDS011;66498;48.564;19.272;2023-04-30T00:17:58;28.60;;;20.48;;
77430;SDS011;66498;48.564;19.272;2023-04-30T00:20:24;28.00;;;20.92;;
77430;SDS011;66498;48.564;19.272;2023-04-30T00:22:50;26.65;;;20.77;;
77430;SDS011;66498;48.564;19.272;2023-04-30T00:25:16;27.02;;;20.77;;
77430;SDS011;66498;48.564;19.272;2023-04-30T00:27:42;29.25;;;22.88;;
77430;SDS011;66498;48.564;19.272;2023-04-30T00:30:07;28.85;;;20.80;;
77430;SDS011;66498;48.564;19.272;2023-04-30T00:32:33;26.50;;;21.67;;
77430;SDS011;66498;48.564;19.272;2023-04-30T00:34:58;26.05;;;21.00;;
77430;SDS011;66498;48.564;19.272;2023-04-30T00:37:24;28.33;;;21.38;;
77430;SDS011;66498;48.564;19.272;2023-04-30T00:39:49;24.92;;;19.90;;
77430;SDS011;66498;48.564;19.272;2023-04-30T00:42:17;24.70;;;19.58;;
77430;SDS011;66498;48.564;19.272;2023-04-30T00:44:43;26.05;;;20.35;;
77430;SDS011;66498;48.564;19.272;2023-04-30T00:47:08;26.83;;;19.95;;
77430;SDS011;66498;48.564;19.272;2023-04-30T00:49:34;27.02;;;20.60;;
77430;SDS011;66498;48.564;19.272;2023-04-30T00:52:01;31.50;;;21.25;;
77430;SDS011;66498;48.564;19.272;2023-04-30T00:54:26;30.05;;;21.48;;
77430;SDS011;66498;48.564;19.272;2023-04-30T00:56:52;28.23;;;20.42;;
77430;SDS011;66498;48.564;19.272;2023-04-30T00:59:17;28.45;;;21.42;;
77430;SDS011;66498;48.564;19.272;2023-04-30T01:01:43;29.20;;;22.83;;
77430;SDS011;66498;48.564;19.272;2023-04-30T01:04:08;29.05;;;22.17;;
77430;SDS011;66498;48.564;19.272;2023-04-30T01:06:34;30.00;;;22.92;;
77430;SDS011;66498;48.564;19.272;2023-04-30T01:09:00;30.23;;;23.35;;
77430;SDS011;66498;48.564;19.272;2023-04-30T01:14:11;28.75;;;21.63;;
77430;SDS011;66498;48.564;19.272;2023-04-30T01:16:50;34.63;;;22.75;;
77430;SDS011;66498;48.564;19.272;2023-04-30T01:30:34;33.17;;;25.30;;
77430;SDS011;66498;48.564;19.272;2023-04-30T01:33:01;33.67;;;24.35;;
77430;SDS011;66498;48.564;19.272;2023-04-30T01:35:32;33.30;;;23.48;;
77430;SDS011;66498;48.564;19.272;2023-04-30T01:41:19;29.93;;;22.30;;
77430;SDS011;66498;48.564;19.272;2023-04-30T01:44:17;34.45;;;24.65;;
77430;SDS011;66498;48.564;19.272;2023-04-30T01:47:38;36.53;;;25.45;;
77430;SDS011;66498;48.564;19.272;2023-04-30T01:52:59;48.35;;;29.35;;
77430;SDS011;66498;48.564;19.272;2023-04-30T01:58:04;34.90;;;24.13;;
77430;SDS011;66498;48.564;19.272;2023-04-30T02:00:34;36.90;;;26.67;;
77430;SDS011;66498;48.564;19.272;2023-04-30T02:02:59;31.42;;;21.55;;
77430;SDS011;66498;48.564;19.272;2023-04-30T02:05:26;30.17;;;22.52;;
77430;SDS011;66498;48.564;19.272;2023-04-30T02:07:52;29.83;;;23.10;;
77430;SDS011;66498;48.564;19.272;2023-04-30T02:10:19;31.35;;;23.10;;
77430;SDS011;66498;48.564;19.272;2023-04-30T02:12:47;30.63;;;22.77;;
77430;SDS011;66498;48.564;19.272;2023-04-30T02:15:13;31.25;;;23.27;;
77430;SDS011;66498;48.564;19.272;2023-04-30T02:17:39;31.80;;;22.50;;
77430;SDS011;66498;48.564;19.272;2023-04-30T02:20:04;28.88;;;21.27;;
77430;SDS011;66498;48.564;19.272;2023-04-30T02:22:34;29.13;;;21.90;;
77430;SDS011;66498;48.564;19.272;2023-04-30T02:25:00;33.78;;;22.58;;
77430;SDS011;66498;48.564;19.272;2023-04-30T02:27:28;27.80;;;21.63;;
77430;SDS011;66498;48.564;19.272;2023-04-30T02:29:54;29.23;;;22.30;;
77430;SDS011;66498;48.564;19.272;2023-04-30T02:32:20;30.38;;;22.67;;
77430;SDS011;66498;48.564;19.272;2023-04-30T02:34:47;30.52;;;21.85;;
77430;SDS011;66498;48.564;19.272;2023-04-30T02:37:12;28.88;;;22.38;;
77430;SDS011;66498;48.564;19.272;2023-04-30T02:39:38;31.13;;;22.85;;
77430;SDS011;66498;48.564;19.272;2023-04-30T02:42:03;27.38;;;22.00;;
77430;SDS011;66498;48.564;19.272;2023-04-30T02:44:30;31.88;;;24.50;;
77430;SDS011;66498;48.564;19.272;2023-04-30T02:46:56;31.90;;;23.65;;
77430;SDS011;66498;48.564;19.272;2023-04-30T02:49:22;28.65;;;22.13;;
77430;SDS011;66498;48.564;19.272;2023-04-30T02:51:48;30.25;;;22.52;;
77430;SDS011;66498;48.564;19.272;2023-04-30T02:54:15;27.55;;;20.83;;
77430;SDS011;66498;48.564;19.272;2023-04-30T02:56:42;26.92;;;21.13;;
77430;SDS011;66498;48.564;19.272;2023-04-30T02:59:08;25.95;;;21.75;;
77430;SDS011;66498;48.564;19.272;2023-04-30T03:01:34;27.08;;;21.73;;
77430;SDS011;66498;48.564;19.272;2023-04-30T03:03:59;25.52;;;19.77;;
77430;SDS011;66498;48.564;19.272;2023-04-30T03:06:27;27.00;;;21.08;;
77430;SDS011;66498;48.564;19.272;2023-04-30T03:08:53;26.45;;;21.02;;
77430;SDS011;66498;48.564;19.272;2023-04-30T03:11:18;30.88;;;23.00;;
77430;SDS011;66498;48.564;19.272;2023-04-30T03:13:46;32.05;;;21.60;;
77430;SDS011;66498;48.564;19.272;2023-04-30T03:16:15;25.20;;;20.13;;
77430;SDS011;66498;48.564;19.272;2023-04-30T03:18:42;30.88;;;20.63;;
77430;SDS011;66498;48.564;19.272;2023-04-30T03:21:07;27.10;;;21.05;;
77430;SDS011;66498;48.564;19.272;2023-04-30T03:23:35;28.90;;;23.15;;
77430;SDS011;66498;48.564;19.272;2023-04-30T03:26:00;29.70;;;21.02;;
77430;SDS011;66498;48.564;19.272;2023-04-30T03:28:26;29.17;;;22.67;;
77430;SDS011;66498;48.564;19.272;2023-04-30T03:30:51;31.02;;;22.35;;
77430;SDS011;66498;48.564;19.272;2023-04-30T03:33:17;32.15;;;21.77;;
77430;SDS011;66498;48.564;19.272;2023-04-30T03:35:42;34.60;;;23.17;;
77430;SDS011;66498;48.564;19.272;2023-04-30T03:38:09;31.77;;;23.67;;
77430;SDS011;66498;48.564;19.272;2023-04-30T03:40:34;44.05;;;24.85;;
77430;SDS011;66498;48.564;19.272;2023-04-30T03:42:59;56.72;;;26.98;;
77430;SDS011;66498;48.564;19.272;2023-04-30T03:45:25;95.88;;;26.58;;
77430;SDS011;66498;48.564;19.272;2023-04-30T03:47:50;124.70;;;29.65;;
77430;SDS011;66498;48.564;19.272;2023-04-30T03:50:17;84.55;;;29.02;;
77430;SDS011;66498;48.564;19.272;2023-04-30T03:52:42;52.70;;;27.48;;
77430;SDS011;66498;48.564;19.272;2023-04-30T03:55:08;42.13;;;28.90;;
77430;SDS011;66498;48.564;19.272;2023-04-30T03:57:34;67.93;;;27.52;;
77430;SDS011;66498;48.564;19.272;2023-04-30T04:00:00;86.57;;;26.63;;
77430;SDS011;66498;48.564;19.272;2023-04-30T04:02:26;55.08;;;25.95;;
77430;SDS011;66498;48.564;19.272;2023-04-30T04:04:51;45.30;;;28.05;;
77430;SDS011;66498;48.564;19.272;2023-04-30T04:07:17;45.53;;;28.35;;
77430;SDS011;66498;48.564;19.272;2023-04-30T04:09:43;45.95;;;26.52;;
77430;SDS011;66498;48.564;19.272;2023-04-30T04:12:08;47.22;;;25.67;;
77430;SDS011;66498;48.564;19.272;2023-04-30T04:14:34;34.92;;;25.38;;
77430;SDS011;66498;48.564;19.272;2023-04-30T04:17:00;37.80;;;27.92;;
77430;SDS011;66498;48.564;19.272;2023-04-30T04:19:26;39.78;;;27.33;;
77430;SDS011;66498;48.564;19.272;2023-04-30T04:21:52;87.53;;;27.02;;
77430;SDS011;66498;48.564;19.272;2023-04-30T04:24:18;41.65;;;25.17;;
77430;SDS011;66498;48.564;19.272;2023-04-30T04:26:43;42.90;;;24.83;;
77430;SDS011;66498;48.564;19.272;2023-04-30T04:29:09;41.45;;;27.08;;
77430;SDS011;66498;48.564;19.272;2023-04-30T04:31:36;100.03;;;27.55;;
77430;SDS011;66498;48.564;19.272;2023-04-30T04:34:02;66.40;;;29.23;;
77430;SDS011;66498;48.564;19.272;2023-04-30T04:36:29;52.45;;;29.92;;
77430;SDS011;66498;48.564;19.272;2023-04-30T04:38:56;43.45;;;29.08;;
77430;SDS011;66498;48.564;19.272;2023-04-30T04:41:26;40.72;;;28.65;;
77430;SDS011;66498;48.564;19.272;2023-04-30T04:43:54;50.92;;;29.95;;
77430;SDS011;66498;48.564;19.272;2023-04-30T04:46:21;48.75;;;28.25;;
77430;SDS011;66498;48.564;19.272;2023-04-30T04:48:47;48.53;;;26.10;;
77430;SDS011;66498;48.564;19.272;2023-04-30T04:51:13;48.17;;;27.40;;
77430;SDS011;66498;48.564;19.272;2023-04-30T04:53:39;41.40;;;28.83;;
77430;SDS011;66498;48.564;19.272;2023-04-30T04:56:04;43.75;;;29.50;;
77430;SDS011;66498;48.564;19.272;2023-04-30T04:58:31;54.88;;;33.95;;
77430;SDS011;66498;48.564;19.272;2023-04-30T05:00:57;45.60;;;34.17;;
77430;SDS011;66498;48.564;19.272;2023-04-30T05:03:25;53.70;;;38.15;;
77430;SDS011;66498;48.564;19.272;2023-04-30T05:05:51;52.85;;;39.40;;
77430;SDS011;66498;48.564;19.272;2023-04-30T05:08:17;53.00;;;37.95;;
77430;SDS011;66498;48.564;19.272;2023-04-30T05:10:42;44.97;;;34.75;;
77430;SDS011;66498;48.564;19.272;2023-04-30T05:13:08;46.55;;;31.45;;
77430;SDS011;66498;48.564;19.272;2023-04-30T05:15:33;41.20;;;29.25;;
77430;SDS011;66498;48.564;19.272;2023-04-30T05:17:59;36.85;;;26.65;;
77430;SDS011;66498;48.564;19.272;2023-04-30T05:20:24;64.38;;;42.53;;
77430;SDS011;66498;48.564;19.272;2023-04-30T05:22:49;55.75;;;37.58;;
77430;SDS011;66498;48.564;19.272;2023-04-30T05:25:15;60.08;;;39.85;;
77430;SDS011;66498;48.564;19.272;2023-04-30T05:27:40;46.00;;;31.77;;
77430;SDS011;66498;48.564;19.272;2023-04-30T05:30:06;41.88;;;30.80;;
77430;SDS011;66498;48.564;19.272;2023-04-30T05:32:33;45.45;;;30.73;;
77430;SDS011;66498;48.564;19.272;2023-04-30T05:34:59;46.83;;;31.77;;
77430;SDS011;66498;48.564;19.272;2023-04-30T05:37:24;40.72;;;30.13;;
77430;SDS011;66498;48.564;19.272;2023-04-30T05:39:50;43.55;;;29.42;;
77430;SDS011;66498;48.564;19.272;2023-04-30T05:42:18;41.38;;;28.65;;
77430;SDS011;66498;48.564;19.272;2023-04-30T05:44:44;43.70;;;29.33;;
77430;SDS011;66498;48.564;19.272;2023-04-30T05:47:12;45.30;;;30.17;;
77430;SDS011;66498;48.564;19.272;2023-04-30T05:49:37;53.67;;;33.42;;
77430;SDS011;66498;48.564;19.272;2023-04-30T05:52:03;55.67;;;32.28;;
77430;SDS011;66498;48.564;19.272;2023-04-30T05:54:29;49.35;;;33.33;;
77430;SDS011;66498;48.564;19.272;2023-04-30T05:56:55;48.80;;;34.25;;
77430;SDS011;66498;48.564;19.272;2023-04-30T05:59:20;53.53;;;34.50;;
77430;SDS011;66498;48.564;19.272;2023-04-30T06:01:46;50.13;;;33.05;;
77430;SDS011;66498;48.564;19.272;2023-04-30T06:04:11;61.22;;;34.70;;
77430;SDS011;66498;48.564;19.272;2023-04-30T06:06:38;60.80;;;35.65;;
77430;SDS011;66498;48.564;19.272;2023-04-30T06:09:06;56.40;;;36.15;;
77430;SDS011;66498;48.564;19.272;2023-04-30T06:11:31;56.75;;;36.47;;
77430;SDS011;66498;48.564;19.272;2023-04-30T06:13:57;56.75;;;36.35;;
77430;SDS011;66498;48.564;19.272;2023-04-30T06:16:23;53.30;;;34.95;;
77430;SDS011;66498;48.564;19.272;2023-04-30T06:18:48;53.97;;;35.47;;
77430;SDS011;66498;48.564;19.272;2023-04-30T06:21:14;54.15;;;34.67;;
77430;SDS011;66498;48.564;19.272;2023-04-30T06:23:44;51.63;;;34.70;;
77430;SDS011;66498;48.564;19.272;2023-04-30T06:26:10;56.50;;;38.25;;
77430;SDS011;66498;48.564;19.272;2023-04-30T06:28:39;51.95;;;34.50;;
77430;SDS011;66498;48.564;19.272;2023-04-30T06:31:07;52.25;;;34.33;;
77430;SDS011;66498;48.564;19.272;2023-04-30T06:33:58;49.22;;;33.20;;
77430;SDS011;66498;48.564;19.272;2023-04-30T06:36:25;75.95;;;33.72;;
77430;SDS011;66498;48.564;19.272;2023-04-30T06:38:51;41.63;;;31.05;;
77430;SDS011;66498;48.564;19.272;2023-04-30T06:41:20;46.58;;;32.97;;
77430;SDS011;66498;48.564;19.272;2023-04-30T06:44:44;45.17;;;31.73;;
77430;SDS011;66498;48.564;19.272;2023-04-30T06:47:11;44.97;;;31.33;;
77430;SDS011;66498;48.564;19.272;2023-04-30T06:49:36;41.30;;;28.25;;
77430;SDS011;66498;48.564;19.272;2023-04-30T06:55:00;44.35;;;30.65;;
77430;SDS011;66498;48.564;19.272;2023-04-30T06:57:26;42.15;;;30.20;;
77430;SDS011;66498;48.564;19.272;2023-04-30T06:59:52;36.80;;;27.05;;
77430;SDS011;66498;48.564;19.272;2023-04-30T07:02:18;37.08;;;26.50;;
77430;SDS011;66498;48.564;19.272;2023-04-30T07:04:44;34.50;;;26.05;;
77430;SDS011;66498;48.564;19.272;2023-04-30T07:07:09;33.85;;;26.80;;
77430;SDS011;66498;48.564;19.272;2023-04-30T07:09:35;31.38;;;24.55;;
77430;SDS011;66498;48.564;19.272;2023-04-30T07:12:01;34.30;;;25.25;;
77430;SDS011;66498;48.564;19.272;2023-04-30T07:14:27;36.97;;;25.90;;
77430;SDS011;66498;48.564;19.272;2023-04-30T07:16:53;31.58;;;23.38;;
77430;SDS011;66498;48.564;19.272;2023-04-30T07:19:18;31.63;;;22.13;;
77430;SDS011;66498;48.564;19.272;2023-04-30T07:21:44;28.55;;;23.10;;
77430;SDS011;66498;48.564;19.272;2023-04-30T07:24:10;35.63;;;25.92;;
77430;SDS011;66498;48.564;19.272;2023-04-30T07:26:38;33.47;;;24.38;;
77430;SDS011;66498;48.564;19.272;2023-04-30T07:29:09;25.40;;;20.00;;
77430;SDS011;66498;48.564;19.272;2023-04-30T07:31:35;15.95;;;12.98;;
77430;SDS011;66498;48.564;19.272;2023-04-30T07:34:00;11.70;;;9.05;;
77430;SDS011;66498;48.564;19.272;2023-04-30T07:36:27;9.75;;;7.28;;
77430;SDS011;66498;48.564;19.272;2023-04-30T07:38:53;10.25;;;6.85;;
77430;SDS011;66498;48.564;19.272;2023-04-30T07:41:18;29.13;;;6.75;;
77430;SDS011;66498;48.564;19.272;2023-04-30T07:43:44;3.95;;;2.92;;
77430;SDS011;66498;48.564;19.272;2023-04-30T07:46:10;6.35;;;3.85;;
77430;SDS011;66498;48.564;19.272;2023-04-30T07:48:35;6.15;;;2.90;;
77430;SDS011;66498;48.564;19.272;2023-04-30T07:51:02;9.15;;;5.20;;
77430;SDS011;66498;48.564;19.272;2023-04-30T07:53:29;3.20;;;2.70;;
77430;SDS011;66498;48.564;19.272;2023-04-30T07:55:54;4.53;;;3.33;;
77430;SDS011;66498;48.564;19.272;2023-04-30T07:58:20;4.95;;;3.78;;
77430;SDS011;66498;48.564;19.272;2023-04-30T08:00:46;6.40;;;2.20;;
77430;SDS011;66498;48.564;19.272;2023-04-30T08:03:11;5.07;;;3.20;;
77430;SDS011;66498;48.564;19.272;2023-04-30T08:05:37;5.13;;;3.42;;
77430;SDS011;66498;48.564;19.272;2023-04-30T08:08:03;5.88;;;3.97;;
77430;SDS011;66498;48.564;19.272;2023-04-30T08:10:28;6.05;;;3.70;;
77430;SDS011;66498;48.564;19.272;2023-04-30T08:12:54;4.13;;;3.28;;
77430;SDS011;66498;48.564;19.272;2023-04-30T08:15:20;4.32;;;2.78;;
77430;SDS011;66498;48.564;19.272;2023-04-30T08:17:47;5.20;;;3.50;;
77430;SDS011;66498;48.564;19.272;2023-04-30T08:20:13;3.88;;;3.05;;
77430;SDS011;66498;48.564;19.272;2023-04-30T08:22:39;3.42;;;2.97;;
77430;SDS011;66498;48.564;19.272;2023-04-30T08:25:05;3.53;;;2.78;;
77430;SDS011;66498;48.564;19.272;2023-04-30T08:27:31;4.45;;;2.50;;
77430;SDS011;66498;48.564;19.272;2023-04-30T08:29:57;5.85;;;2.50;;
77430;SDS011;66498;48.564;19.272;2023-04-30T08:32:25;3.92;;;2.35;;
77430;SDS011;66498;48.564;19.272;2023-04-30T08:34:52;2.92;;;2.33;;
77430;SDS011;66498;48.564;19.272;2023-04-30T08:37:18;2.55;;;2.10;;
77430;SDS011;66498;48.564;19.272;2023-04-30T08:39:43;4.22;;;2.40;;
77430;SDS011;66498;48.564;19.272;2023-04-30T08:42:09;3.85;;;2.58;;
77430;SDS011;66498;48.564;19.272;2023-04-30T08:44:39;3.63;;;2.83;;
77430;SDS011;66498;48.564;19.272;2023-04-30T08:47:09;2.50;;;2.20;;
77430;SDS011;66498;48.564;19.272;2023-04-30T08:49:39;1.90;;;1.70;;
77430;SDS011;66498;48.564;19.272;2023-04-30T08:52:05;3.03;;;1.95;;
77430;SDS011;66498;48.564;19.272;2023-04-30T08:54:31;1.73;;;1.50;;
77430;SDS011;66498;48.564;19.272;2023-04-30T08:56:59;2.42;;;1.73;;
77430;SDS011;66498;48.564;19.272;2023-04-30T08:59:25;1.20;;;1.10;;
77430;SDS011;66498;48.564;19.272;2023-04-30T09:01:51;0.90;;;0.90;;
77430;SDS011;66498;48.564;19.272;2023-04-30T09:04:17;1.30;;;1.20;;
77430;SDS011;66498;48.564;19.272;2023-04-30T09:06:42;0.93;;;0.90;;
77430;SDS011;66498;48.564;19.272;2023-04-30T09:09:09;1.15;;;1.05;;
77430;SDS011;66498;48.564;19.272;2023-04-30T09:11:36;1.10;;;1.00;;
77430;SDS011;66498;48.564;19.272;2023-04-30T09:14:02;1.05;;;0.98;;
77430;SDS011;66498;48.564;19.272;2023-04-30T09:16:28;0.98;;;0.90;;
77430;SDS011;66498;48.564;19.272;2023-04-30T09:19:09;1.30;;;1.13;;
77430;SDS011;66498;48.564;19.272;2023-04-30T09:21:35;1.25;;;1.15;;
77430;SDS011;66498;48.564;19.272;2023-04-30T09:24:02;1.23;;;1.13;;
77430;SDS011;66498;48.564;19.272;2023-04-30T09:26:32;1.30;;;1.13;;
77430;SDS011;66498;48.564;19.272;2023-04-30T09:28:59;1.60;;;1.23;;
77430;SDS011;66498;48.564;19.272;2023-04-30T09:31:26;1.38;;;1.25;;
77430;SDS011;66498;48.564;19.272;2023-04-30T09:33:52;1.13;;;1.02;;
77430;SDS011;66498;48.564;19.272;2023-04-30T09:36:18;2.22;;;1.25;;
77430;SDS011;66498;48.564;19.272;2023-04-30T09:38:44;1.40;;;1.30;;
77430;SDS011;66498;48.564;19.272;2023-04-30T09:41:20;1.13;;;1.10;;
77430;SDS011;66498;48.564;19.272;2023-04-30T09:43:51;1.95;;;1.63;;
77430;SDS011;66498;48.564;19.272;2023-04-30T09:46:21;2.92;;;1.40;;
77430;SDS011;66498;48.564;19.272;2023-04-30T09:48:57;2.05;;;1.30;;
77430;SDS011;66498;48.564;19.272;2023-04-30T09:51:24;1.20;;;1.10;;
77430;SDS011;66498;48.564;19.272;2023-04-30T09:53:51;1.45;;;1.35;;
77430;SDS011;66498;48.564;19.272;2023-04-30T09:56:19;1.20;;;1.10;;
77430;SDS011;66498;48.564;19.272;2023-04-30T09:58:48;1.90;;;1.45;;
77430;SDS011;66498;48.564;19.272;2023-04-30T10:01:19;1.50;;;1.40;;
77430;SDS011;66498;48.564;19.272;2023-04-30T10:03:46;1.50;;;1.20;;
77430;SDS011;66498;48.564;19.272;2023-04-30T10:06:12;1.75;;;1.40;;
77430;SDS011;66498;48.564;19.272;2023-04-30T10:08:40;2.67;;;1.23;;
77430;SDS011;66498;48.564;19.272;2023-04-30T10:11:08;1.60;;;1.50;;
77430;SDS011;66498;48.564;19.272;2023-04-30T10:16:34;1.60;;;1.38;;
77430;SDS011;66498;48.564;19.272;2023-04-30T10:19:17;1.45;;;1.35;;
77430;SDS011;66498;48.564;19.272;2023-04-30T10:21:46;2.00;;;1.80;;
77430;SDS011;66498;48.564;19.272;2023-04-30T10:24:13;1.48;;;1.30;;
77430;SDS011;66498;48.564;19.272;2023-04-30T10:26:39;1.67;;;1.58;;
77430;SDS011;66498;48.564;19.272;2023-04-30T10:29:06;3.75;;;1.63;;
77430;SDS011;66498;48.564;19.272;2023-04-30T10:31:33;1.48;;;1.38;;
77430;SDS011;66498;48.564;19.272;2023-04-30T10:39:13;1.73;;;1.63;;
77430;SDS011;66498;48.564;19.272;2023-04-30T10:41:45;1.92;;;1.50;;
77430;SDS011;66498;48.564;19.272;2023-04-30T10:44:13;2.53;;;1.50;;
77430;SDS011;66498;48.564;19.272;2023-04-30T10:46:39;1.40;;;1.30;;
77430;SDS011;66498;48.564;19.272;2023-04-30T10:49:05;1.40;;;1.30;;
77430;SDS011;66498;48.564;19.272;2023-04-30T10:51:43;1.27;;;1.17;;
77430;SDS011;66498;48.564;19.272;2023-04-30T10:54:15;1.95;;;1.70;;
77430;SDS011;66498;48.564;19.272;2023-04-30T10:56:44;1.33;;;1.23;;
77430;SDS011;66498;48.564;19.272;2023-04-30T10:59:11;1.88;;;1.75;;
77430;SDS011;66498;48.564;19.272;2023-04-30T11:01:55;1.48;;;1.38;;
77430;SDS011;66498;48.564;19.272;2023-04-30T11:04:22;1.40;;;1.30;;
77430;SDS011;66498;48.564;19.272;2023-04-30T11:09:34;1.30;;;1.20;;
77430;SDS011;66498;48.564;19.272;2023-04-30T11:12:13;1.67;;;1.40;;
77430;SDS011;66498;48.564;19.272;2023-04-30T11:14:43;1.58;;;1.48;;
77430;SDS011;66498;48.564;19.272;2023-04-30T11:17:10;1.90;;;1.60;;
77430;SDS011;66498;48.564;19.272;2023-04-30T11:19:50;1.70;;;1.58;;
77430;SDS011;66498;48.564;19.272;2023-04-30T11:22:17;1.50;;;1.40;;
77430;SDS011;66498;48.564;19.272;2023-04-30T11:24:51;1.23;;;1.13;;
77430;SDS011;66498;48.564;19.272;2023-04-30T11:27:23;1.90;;;1.70;;
77430;SDS011;66498;48.564;19.272;2023-04-30T11:29:53;2.28;;;1.40;;
77430;SDS011;66498;48.564;19.272;2023-04-30T11:32:21;2.22;;;1.88;;
77430;SDS011;66498;48.564;19.272;2023-04-30T11:34:50;2.58;;;1.50;;
77430;SDS011;66498;48.564;19.272;2023-04-30T11:40:03;1.67;;;1.58;;
77430;SDS011;66498;48.564;19.272;2023-04-30T11:42:35;1.63;;;1.30;;
77430;SDS011;66498;48.564;19.272;2023-04-30T11:45:10;1.50;;;1.40;;
77430;SDS011;66498;48.564;19.272;2023-04-30T11:47:41;2.50;;;1.60;;
77430;SDS011;66498;48.564;19.272;2023-04-30T11:50:12;1.77;;;1.50;;
77430;SDS011;66498;48.564;19.272;2023-04-30T11:52:39;1.45;;;1.30;;
77430;SDS011;66498;48.564;19.272;2023-04-30T11:55:11;1.35;;;1.25;;
77430;SDS011;66498;48.564;19.272;2023-04-30T11:57:40;1.50;;;1.40;;
77430;SDS011;66498;48.564;19.272;2023-04-30T12:00:08;1.23;;;1.20;;
77430;SDS011;66498;48.564;19.272;2023-04-30T12:02:35;1.50;;;1.40;;
77430;SDS011;66498;48.564;19.272;2023-04-30T12:05:01;1.77;;;1.55;;
77430;SDS011;66498;48.564;19.272;2023-04-30T12:07:26;1.27;;;1.15;;
77430;SDS011;66498;48.564;19.272;2023-04-30T12:09:55;1.30;;;1.20;;
77430;SDS011;66498;48.564;19.272;2023-04-30T12:12:27;1.63;;;1.50;;
77430;SDS011;66498;48.564;19.272;2023-04-30T12:14:55;1.00;;;1.00;;
77430;SDS011;66498;48.564;19.272;2023-04-30T12:17:33;1.40;;;1.30;;
77430;SDS011;66498;48.564;19.272;2023-04-30T12:20:00;1.20;;;1.10;;
77430;SDS011;66498;48.564;19.272;2023-04-30T12:22:26;1.30;;;1.13;;
77430;SDS011;66498;48.564;19.272;2023-04-30T12:24:53;1.55;;;1.45;;
77430;SDS011;66498;48.564;19.272;2023-04-30T12:27:20;2.17;;;1.40;;
77430;SDS011;66498;48.564;19.272;2023-04-30T12:29:46;2.75;;;1.45;;
77430;SDS011;66498;48.564;19.272;2023-04-30T12:32:16;1.88;;;1.50;;
77430;SDS011;66498;48.564;19.272;2023-04-30T12:34:43;1.65;;;1.52;;
77430;SDS011;66498;48.564;19.272;2023-04-30T12:37:09;1.60;;;1.50;;
77430;SDS011;66498;48.564;19.272;2023-04-30T12:39:35;2.20;;;1.50;;
77430;SDS011;66498;48.564;19.272;2023-04-30T12:42:01;1.70;;;1.55;;
77430;SDS011;66498;48.564;19.272;2023-04-30T12:44:28;1.88;;;1.30;;
77430;SDS011;66498;48.564;19.272;2023-04-30T12:46:54;1.65;;;1.55;;
77430;SDS011;66498;48.564;19.272;2023-04-30T12:49:22;1.60;;;1.50;;
77430;SDS011;66498;48.564;19.272;2023-04-30T12:52:12;1.50;;;1.40;;
77430;SDS011;66498;48.564;19.272;2023-04-30T12:54:38;1.77;;;1.40;;
77430;SDS011;66498;48.564;19.272;2023-04-30T12:57:08;1.30;;;1.10;;
77430;SDS011;66498;48.564;19.272;2023-04-30T12:59:39;1.90;;;1.50;;
77430;SDS011;66498;48.564;19.272;2023-04-30T13:02:25;1.50;;;1.40;;
77430;SDS011;66498;48.564;19.272;2023-04-30T13:04:53;1.20;;;1.10;;
77430;SDS011;66498;48.564;19.272;2023-04-30T13:07:44;1.15;;;1.05;;
77430;SDS011;66498;48.564;19.272;2023-04-30T13:10:10;1.85;;;1.40;;
77430;SDS011;66498;48.564;19.272;2023-04-30T13:12:37;1.20;;;1.10;;
77430;SDS011;66498;48.564;19.272;2023-04-30T13:15:02;2.28;;;1.05;;
77430;SDS011;66498;48.564;19.272;2023-04-30T13:17:28;1.02;;;1.02;;
77430;SDS011;66498;48.564;19.272;2023-04-30T13:19:53;1.10;;;1.00;;
77430;SDS011;66498;48.564;19.272;2023-04-30T13:22:19;1.58;;;1.40;;
77430;SDS011;66498;48.564;19.272;2023-04-30T13:24:44;1.40;;;1.30;;
77430;SDS011;66498;48.564;19.272;2023-04-30T13:27:10;1.95;;;1.45;;
77430;SDS011;66498;48.564;19.272;2023-04-30T13:29:35;1.60;;;1.30;;
77430;SDS011;66498;48.564;19.272;2023-04-30T13:32:01;1.60;;;1.50;;
77430;SDS011;66498;48.564;19.272;2023-04-30T13:34:26;1.50;;;1.33;;
77430;SDS011;66498;48.564;19.272;2023-04-30T13:36:52;1.88;;;1.35;;
77430;SDS011;66498;48.564;19.272;2023-04-30T13:39:18;1.23;;;0.90;;
77430;SDS011;66498;48.564;19.272;2023-04-30T13:41:43;1.30;;;1.20;;
77430;SDS011;66498;48.564;19.272;2023-04-30T13:44:09;1.30;;;1.20;;
77430;SDS011;66498;48.564;19.272;2023-04-30T13:46:35;1.77;;;1.40;;
77430;SDS011;66498;48.564;19.272;2023-04-30T13:49:03;1.80;;;1.70;;
77430;SDS011;66498;48.564;19.272;2023-04-30T13:51:29;2.00;;;1.50;;
77430;SDS011;66498;48.564;19.272;2023-04-30T13:53:55;2.13;;;1.70;;
77430;SDS011;66498;48.564;19.272;2023-04-30T13:56:21;3.45;;;1.77;;
77430;SDS011;66498;48.564;19.272;2023-04-30T13:58:47;1.67;;;1.40;;
77430;SDS011;66498;48.564;19.272;2023-04-30T14:01:14;1.58;;;1.45;;
77430;SDS011;66498;48.564;19.272;2023-04-30T14:03:53;1.88;;;1.40;;
77430;SDS011;66498;48.564;19.272;2023-04-30T14:06:43;1.60;;;1.50;;
77430;SDS011;66498;48.564;19.272;2023-04-30T14:09:12;1.70;;;1.60;;
77430;SDS011;66498;48.564;19.272;2023-04-30T14:11:38;1.65;;;1.50;;
77430;SDS011;66498;48.564;19.272;2023-04-30T14:14:05;2.30;;;1.60;;
77430;SDS011;66498;48.564;19.272;2023-04-30T14:16:33;1.63;;;1.42;;
77430;SDS011;66498;48.564;19.272;2023-04-30T14:19:00;2.45;;;1.40;;
77430;SDS011;66498;48.564;19.272;2023-04-30T14:21:25;1.48;;;1.38;;
77430;SDS011;66498;48.564;19.272;2023-04-30T14:23:54;3.92;;;1.90;;
77430;SDS011;66498;48.564;19.272;2023-04-30T14:26:20;2.33;;;1.80;;
77430;SDS011;66498;48.564;19.272;2023-04-30T14:28:46;2.40;;;1.88;;
77430;SDS011;66498;48.564;19.272;2023-04-30T14:31:11;2.55;;;1.95;;
77430;SDS011;66498;48.564;19.272;2023-04-30T14:33:37;1.98;;;1.75;;
77430;SDS011;66498;48.564;19.272;2023-04-30T14:36:02;1.80;;;1.70;;
77430;SDS011;66498;48.564;19.272;2023-04-30T14:38:28;1.52;;;1.42;;
77430;SDS011;66498;48.564;19.272;2023-04-30T14:40:54;1.88;;;1.70;;
77430;SDS011;66498;48.564;19.272;2023-04-30T14:43:20;1.90;;;1.70;;
77430;SDS011;66498;48.564;19.272;2023-04-30T14:45:45;2.05;;;1.77;;
77430;SDS011;66498;48.564;19.272;2023-04-30T14:48:11;1.83;;;1.48;;
77430;SDS011;66498;48.564;19.272;2023-04-30T14:50:37;2.03;;;1.83;;
77430;SDS011;66498;48.564;19.272;2023-04-30T14:53:03;1.90;;;1.80;;
77430;SDS011;66498;48.564;19.272;2023-04-30T14:55:31;1.70;;;1.60;;
77430;SDS011;66498;48.564;19.272;2023-04-30T14:57:58;1.73;;;1.58;;
77430;SDS011;66498;48.564;19.272;2023-04-30T15:00:24;1.70;;;1.60;;
77430;SDS011;66498;48.564;19.272;2023-04-30T15:02:50;3.33;;;1.70;;